Time;durP1;ratioP1;P1;durP2;ratioP2;P2;SDS_P1;SDS_P2;PMS_P1;PMS_P2;Temp;Humidity;BMP_temperature;BMP_pressure;BME280_temperature;BME280_humidity;BME280_pressure;Samples;Min_cycle;Max_cycle;Signal;HPM_P1;HPM_P2
2021/01/01 00:02:19;;;;;;;21.97;15.17;;;;;;;-144.99;100.00;52521.47;5051616;28;20630;-78
2021/01/01 00:04:45;;;;;;;25.57;14.80;;;;;;;-144.99;100.00;52541.84;5047814;28;20667;-76
2021/01/01 00:07:12;;;;;;;25.47;15.80;;;;;;;-144.99;100.00;52566.31;5049642;28;20681;-77
2021/01/01 00:09:38;;;;;;;20.37;14.93;;;;;;;-144.99;100.00;52558.16;4701030;28;9999600;-78
2021/01/01 00:12:05;;;;;;;22.43;17.27;;;;;;;-144.99;100.00;52541.84;5048979;28;20324;-76
2021/01/01 00:14:31;;;;;;;18.27;14.27;;;;;;;-144.99;100.00;52513.31;5048429;28;20647;-77
2021/01/01 00:16:57;;;;;;;20.97;14.47;;;;;;;-144.99;100.00;52505.16;5048345;28;20726;-77
2021/01/01 00:19:24;;;;;;;27.70;16.03;;;;;;;-144.99;100.00;52545.94;5048896;28;20714;-78
2021/01/01 00:21:50;;;;;;;22.47;16.50;;;;;;;-144.99;100.00;52541.84;5049961;28;20673;-78
2021/01/01 00:24:16;;;;;;;24.70;16.87;;;;;;;-144.99;100.00;52525.56;5051032;28;20679;-77
2021/01/01 00:26:42;;;;;;;26.67;14.90;;;;;;;-144.99;100.00;52566.31;5063328;28;20672;-79
2021/01/01 00:29:08;;;;;;;19.83;13.83;;;;;;;-144.99;100.00;52539.81;5070634;28;21241;-78
2021/01/01 00:31:35;;;;;;;19.93;14.20;;;;;;;-144.99;100.00;52558.16;5071691;28;20625;-77
2021/01/01 00:34:01;;;;;;;22.43;14.73;;;;;;;-144.99;100.00;52541.84;5068225;28;20758;-76
2021/01/01 00:36:28;;;;;;;20.67;15.20;;;;;;;-144.99;100.00;52570.38;5053811;28;20687;-77
2021/01/01 00:38:54;;;;;;;25.00;17.07;;;;;;;-144.99;100.00;52543.91;5052205;28;21188;-75
2021/01/01 00:41:25;;;;;;;21.17;16.03;;;;;;;-144.99;100.00;52592.81;5066041;28;20719;-77
2021/01/01 00:43:52;;;;;;;23.27;14.70;;;;;;;-144.99;100.00;52550.00;5073856;28;20667;-78
2021/01/01 00:46:19;;;;;;;17.67;14.80;;;;;;;-144.99;100.00;52560.19;5061853;28;20660;-77
2021/01/01 00:48:45;;;;;;;18.13;12.70;;;;;;;-144.99;100.00;52572.44;5052151;28;21299;-77
2021/01/01 00:51:11;;;;;;;18.30;13.47;;;;;;;-144.99;100.00;52525.56;5052806;28;20738;-77
2021/01/01 00:53:38;;;;;;;16.77;12.77;;;;;;;-144.99;100.00;52541.84;5052710;28;20648;-79
2021/01/01 00:56:05;;;;;;;24.83;14.47;;;;;;;-144.99;100.00;52554.09;5054884;28;20640;-77
2021/01/01 00:58:31;;;;;;;22.00;14.80;;;;;;;-144.99;100.00;52550.00;5053166;28;20652;-77
2021/01/01 01:00:57;;;;;;;21.00;12.20;;;;;;;-144.99;100.00;52566.31;5054452;28;20624;-77
2021/01/01 01:03:23;;;;;;;21.63;14.97;;;;;;;-144.99;100.00;52550.00;5052668;28;21116;-78
2021/01/01 01:05:49;;;;;;;19.63;14.17;;;;;;;-144.99;100.00;52543.91;5052147;28;20742;-79
2021/01/01 01:08:16;;;;;;;21.70;14.37;;;;;;;-144.99;100.00;52537.78;5052697;28;20628;-78
2021/01/01 01:10:44;;;;;;;20.47;12.90;;;;;;;-144.99;100.00;52545.94;5052520;28;20714;-77
2021/01/01 01:13:11;;;;;;;23.43;15.03;;;;;;;-144.99;100.00;52574.47;5052558;28;20670;-77
2021/01/01 01:15:39;;;;;;;23.10;15.67;;;;;;;-144.99;100.00;52533.69;5051369;28;20897;-74
2021/01/01 01:18:05;;;;;;;25.00;16.87;;;;;;;-144.99;100.00;52554.09;5050893;28;20632;-71
2021/01/01 01:20:31;;;;;;;22.43;15.07;;;;;;;-144.99;100.00;52529.63;5050417;28;21276;-76
2021/01/01 01:22:57;;;;;;;20.80;14.80;;;;;;;-144.99;100.00;52527.59;4703926;28;9999893;-77
2021/01/01 01:25:24;;;;;;;23.20;14.30;;;;;;;-144.99;100.00;52541.84;5060989;28;20266;-77
2021/01/01 01:27:51;;;;;;;23.90;15.37;;;;;;;-144.99;100.00;52562.25;5058733;28;20623;-76
2021/01/01 01:30:17;;;;;;;22.47;16.10;;;;;;;-144.99;100.00;52566.31;5042287;28;20675;-79
2021/01/01 01:32:43;;;;;;;18.60;14.30;;;;;;;-144.99;100.00;52574.47;5053111;28;20679;-77
2021/01/01 01:35:10;;;;;;;18.37;14.00;;;;;;;-144.99;100.00;52525.56;5044347;28;20659;-77
2021/01/01 01:37:39;;;;;;;19.07;13.47;;;;;;;-144.99;100.00;52517.41;5055588;28;20645;-76
2021/01/01 01:40:07;;;;;;;21.93;14.63;;;;;;;-144.99;100.00;52529.63;5057088;28;21057;-77
2021/01/01 01:42:33;;;;;;;22.87;15.73;;;;;;;-144.99;100.00;52513.31;5051396;28;21198;-77
2021/01/01 01:45:00;;;;;;;25.07;14.20;;;;;;;-144.99;100.00;52533.69;5049031;28;20762;-77
2021/01/01 01:47:28;;;;;;;20.53;15.03;;;;;;;-144.99;100.00;52537.78;5067894;28;20655;-77
2021/01/01 01:49:55;;;;;;;22.67;16.43;;;;;;;-144.99;100.00;52541.84;5050092;28;20719;-75
2021/01/01 01:52:21;;;;;;;18.03;14.80;;;;;;;-144.99;100.00;52541.84;5056228;28;20677;-77
2021/01/01 01:54:48;;;;;;;18.30;12.70;;;;;;;-144.99;100.00;52537.78;5056802;28;20816;-77
2021/01/01 01:57:16;;;;;;;21.27;14.33;;;;;;;-144.99;100.00;52517.41;5047343;28;20683;-77
2021/01/01 01:59:45;;;;;;;22.30;14.47;;;;;;;-144.99;100.00;52560.19;5057552;28;20747;-77
2021/01/01 02:02:12;;;;;;;23.53;14.90;;;;;;;-144.99;100.00;52554.09;5046820;28;20726;-77
2021/01/01 02:04:38;;;;;;;19.20;13.90;;;;;;;-144.99;100.00;52566.31;5049097;28;20868;-77
2021/01/01 02:07:04;;;;;;;20.17;15.63;;;;;;;-144.99;100.00;52566.31;5048148;28;20636;-77
2021/01/01 02:09:31;;;;;;;20.70;14.80;;;;;;;-144.99;100.00;52517.41;5055741;28;20661;-77
2021/01/01 02:11:57;;;;;;;23.27;16.93;;;;;;;-144.99;100.00;52545.94;5045493;28;21192;-76
2021/01/01 02:14:23;;;;;;;18.50;14.13;;;;;;;-144.99;100.00;52582.63;5046581;28;21201;-77
2021/01/01 02:16:50;;;;;;;17.47;13.67;;;;;;;-144.99;100.00;52541.84;5046831;28;20759;-75
2021/01/01 02:19:18;;;;;;;25.03;16.93;;;;;;;-144.99;100.00;52525.56;5052979;28;20645;-75
2021/01/01 02:21:45;;;;;;;20.43;14.30;;;;;;;-144.99;100.00;52558.16;4698718;28;10000234;-76
2021/01/01 02:24:12;;;;;;;23.63;16.13;;;;;;;-144.99;100.00;52550.00;5063168;28;20339;-74
2021/01/01 02:26:39;;;;;;;20.40;14.63;;;;;;;-144.99;100.00;52541.84;5056308;28;21047;-75
2021/01/01 02:29:05;;;;;;;21.17;16.10;;;;;;;-144.99;100.00;52574.47;5058390;28;21175;-75
2021/01/01 02:31:32;;;;;;;23.80;17.20;;;;;;;-144.99;100.00;52566.31;5047589;28;21248;-77
2021/01/01 02:34:01;;;;;;;21.50;15.97;;;;;;;-144.99;100.00;52550.00;5062180;28;21167;-76
2021/01/01 02:36:27;;;;;;;20.07;15.33;;;;;;;-144.99;100.00;52525.56;5048353;28;20744;-76
2021/01/01 02:38:53;;;;;;;21.27;16.90;;;;;;;-144.99;100.00;52558.16;5048447;28;20636;-76
2021/01/01 02:41:20;;;;;;;24.00;17.37;;;;;;;-144.99;100.00;52545.94;5047449;28;20743;-75
2021/01/01 02:43:46;;;;;;;24.40;15.87;;;;;;;-144.99;100.00;52545.94;5054358;28;21087;-75
2021/01/01 02:46:12;;;;;;;23.57;14.77;;;;;;;-144.99;100.00;52547.97;5069847;28;20637;-77
2021/01/01 02:48:38;;;;;;;21.07;13.93;;;;;;;-144.99;100.00;52574.47;5063417;28;20789;-77
2021/01/01 02:51:05;;;;;;;26.57;18.00;;;;;;;-144.99;100.00;52550.00;5049696;28;20620;-76
2021/01/01 02:53:31;;;;;;;22.53;16.77;;;;;;;-144.99;100.00;52556.13;5048213;28;20624;-75
2021/01/01 02:55:58;;;;;;;23.30;17.30;;;;;;;-144.99;100.00;52507.19;5052575;28;20651;-75
2021/01/01 02:58:25;;;;;;;22.53;16.67;;;;;;;-144.99;100.00;52574.47;5059914;28;20714;-75
2021/01/01 03:00:51;;;;;;;24.67;18.53;;;;;;;-144.99;100.00;52562.25;5043805;28;20719;-77
2021/01/01 03:03:17;;;;;;;22.33;15.23;;;;;;;-144.99;100.00;52558.16;5055007;28;20956;-77
2021/01/01 03:05:44;;;;;;;28.40;18.80;;;;;;;-144.99;100.00;52547.97;5054655;28;20635;-77
2021/01/01 03:08:10;;;;;;;24.83;17.17;;;;;;;-144.99;100.00;52566.31;5049218;28;20714;-77
2021/01/01 03:10:36;;;;;;;23.07;17.07;;;;;;;-144.99;100.00;52554.09;5047775;28;20684;-76
2021/01/01 03:13:03;;;;;;;25.37;18.57;;;;;;;-144.99;100.00;52537.78;5049556;28;20738;-77
2021/01/01 03:15:30;;;;;;;26.43;18.00;;;;;;;-144.99;100.00;52541.84;5060327;28;20671;-77
2021/01/01 03:17:56;;;;;;;23.63;16.10;;;;;;;-144.99;100.00;52566.31;5069078;28;20720;-77
2021/01/01 03:20:22;;;;;;;28.43;19.30;;;;;;;-144.99;100.00;52572.44;5056500;28;20674;-76
2021/01/01 03:22:49;;;;;;;25.70;19.90;;;;;;;-144.99;100.00;52568.34;5054986;28;20666;-76
2021/01/01 03:25:15;;;;;;;26.33;16.83;;;;;;;-144.99;100.00;52545.94;5067051;28;20658;-76
2021/01/01 03:27:41;;;;;;;24.73;18.60;;;;;;;-144.99;100.00;52556.13;5060847;28;20729;-76
2021/01/01 03:30:09;;;;;;;25.07;16.93;;;;;;;-144.99;100.00;52564.28;5062146;28;20655;-76
2021/01/01 03:32:36;;;;;;;24.30;17.77;;;;;;;-144.99;100.00;52547.97;5053007;28;20639;-77
2021/01/01 03:35:06;;;;;;;27.73;18.23;;;;;;;-144.99;100.00;52552.03;5052986;28;20739;-77
2021/01/01 03:37:34;;;;;;;26.33;18.20;;;;;;;-144.99;100.00;52521.47;5052415;28;20719;-77
2021/01/01 03:40:01;;;;;;;25.77;17.30;;;;;;;-144.99;100.00;52525.56;5056619;28;20716;-75
2021/01/01 03:42:27;;;;;;;27.27;17.77;;;;;;;-144.99;100.00;52529.63;5067806;28;20701;-77
2021/01/01 03:44:53;;;;;;;27.33;17.90;;;;;;;-144.99;100.00;52547.97;5052854;28;20762;-77
2021/01/01 03:47:21;;;;;;;24.40;16.90;;;;;;;-144.99;100.00;52554.09;5061803;28;20627;-76
2021/01/01 03:49:50;;;;;;;26.57;17.70;;;;;;;-144.99;100.00;52545.94;5052244;28;21028;-78
2021/01/01 03:52:16;;;;;;;26.27;18.67;;;;;;;-144.99;100.00;52570.38;5050574;28;20627;-77
2021/01/01 03:54:42;;;;;;;24.80;16.77;;;;;;;-144.99;100.00;52568.34;5054722;28;21243;-77
2021/01/01 03:57:08;;;;;;;27.07;19.67;;;;;;;-144.99;100.00;52525.56;5068831;28;21281;-77
2021/01/01 03:59:34;;;;;;;25.83;20.17;;;;;;;-144.99;100.00;52541.84;5069130;28;20662;-79
2021/01/01 04:02:00;;;;;;;32.47;20.27;;;;;;;-144.99;100.00;52543.91;5065652;28;20671;-77
2021/01/01 04:04:27;;;;;;;29.53;19.23;;;;;;;-144.99;100.00;52537.78;5051260;28;20673;-76
2021/01/01 04:06:54;;;;;;;28.37;18.13;;;;;;;-144.99;100.00;52525.56;5051329;28;20651;-76
2021/01/01 04:09:20;;;;;;;27.37;18.73;;;;;;;-144.99;100.00;52562.25;5052037;28;20723;-76
2021/01/01 04:11:46;;;;;;;28.70;19.77;;;;;;;-144.99;100.00;52558.16;5071368;28;20736;-77
2021/01/01 04:14:12;;;;;;;30.87;18.70;;;;;;;-144.99;100.00;52576.50;5051885;28;21126;-77
2021/01/01 04:16:43;;;;;;;24.67;17.13;;;;;;;-144.99;100.00;52505.16;5059951;28;20676;-76
2021/01/01 04:19:10;;;;;;;25.27;15.83;;;;;;;-144.99;100.00;52570.38;5066884;28;21008;-76
2021/01/01 04:21:36;;;;;;;21.67;13.83;;;;;;;-144.99;100.00;52513.31;5069636;28;20619;-76
2021/01/01 04:24:03;;;;;;;25.53;16.13;;;;;;;-144.99;100.00;52566.31;5066020;28;20681;-77
2021/01/01 04:26:29;;;;;;;25.53;18.33;;;;;;;-144.99;100.00;52552.03;5062906;28;20627;-77
2021/01/01 04:28:55;;;;;;;22.63;15.43;;;;;;;-144.99;100.00;52558.16;5070781;28;20897;-77
2021/01/01 04:31:21;;;;;;;25.63;17.47;;;;;;;-144.99;100.00;52554.09;5063091;28;20950;-76
2021/01/01 04:33:49;;;;;;;23.30;14.17;;;;;;;-144.99;100.00;52537.78;5070339;28;20647;-76
2021/01/01 04:36:15;;;;;;;24.17;16.73;;;;;;;-144.99;100.00;52541.84;5047184;28;20723;-75
2021/01/01 04:38:42;;;;;;;25.47;18.07;;;;;;;-144.99;100.00;52564.28;5068445;28;21254;-75
2021/01/01 04:41:10;;;;;;;20.10;17.00;;;;;;;-144.99;100.00;52554.09;5060398;28;21051;-76
2021/01/01 04:43:37;;;;;;;27.07;20.17;;;;;;;-144.99;100.00;52501.09;5068303;28;20646;-76
2021/01/01 04:46:04;;;;;;;24.33;17.90;;;;;;;-144.99;100.00;52501.09;5059774;28;20663;-75
2021/01/01 04:48:30;;;;;;;23.87;15.80;;;;;;;-144.99;100.00;52574.47;5050254;28;21034;-76
2021/01/01 04:50:56;;;;;;;25.23;17.60;;;;;;;-144.99;100.00;52552.03;5050664;28;20734;-77
2021/01/01 04:53:24;;;;;;;29.30;17.50;;;;;;;-144.99;100.00;52558.16;5059688;28;20717;-76
2021/01/01 04:55:53;;;;;;;23.37;17.00;;;;;;;-144.99;100.00;52541.84;5066027;28;20725;-76
2021/01/01 04:58:20;;;;;;;31.53;19.90;;;;;;;-144.99;100.00;52562.25;5070403;28;20737;-75
2021/01/01 05:00:46;;;;;;;25.67;17.40;;;;;;;-144.99;100.00;52545.94;5064568;28;21229;-78
2021/01/01 05:03:12;;;;;;;23.50;16.83;;;;;;;-144.99;100.00;52554.09;5052336;28;21149;-78
2021/01/01 05:05:46;;;;;;;28.23;18.17;;;;;;;-144.99;100.00;52570.38;5051326;28;20825;-77
2021/01/01 05:08:12;;;;;;;27.93;16.77;;;;;;;-144.99;100.00;52558.16;5053099;28;21065;-77
2021/01/01 05:10:38;;;;;;;28.67;17.33;;;;;;;-144.99;100.00;52529.63;5070827;28;20685;-77
2021/01/01 05:13:10;;;;;;;27.03;15.57;;;;;;;-144.99;100.00;52554.09;5049517;28;20663;-77
2021/01/01 05:15:37;;;;;;;24.67;17.17;;;;;;;-144.99;100.00;52527.59;5049509;28;20702;-76
2021/01/01 05:18:16;;;;;;;23.70;17.47;;;;;;;-144.99;100.00;52570.38;5050559;28;20614;-77
2021/01/01 05:20:42;;;;;;;23.40;17.27;;;;;;;-144.99;100.00;52570.38;5045808;28;20619;-77
2021/01/01 05:23:19;;;;;;;32.20;19.73;;;;;;;-144.99;100.00;52517.41;5049661;28;21003;-77
2021/01/01 05:25:45;;;;;;;28.13;19.10;;;;;;;-144.99;100.00;52586.69;5051198;28;20722;-79
2021/01/01 05:28:13;;;;;;;22.53;15.90;;;;;;;-144.99;100.00;52531.66;5049475;28;20636;-78
2021/01/01 05:30:41;;;;;;;26.03;17.40;;;;;;;-144.99;100.00;52525.56;5054473;28;20630;-77
2021/01/01 05:33:09;;;;;;;27.47;17.63;;;;;;;-144.99;100.00;52590.78;5059712;28;20657;-79
2021/01/01 05:35:35;;;;;;;31.00;17.70;;;;;;;-144.99;100.00;52541.84;5059961;28;20753;-80
2021/01/01 05:38:15;;;;;;;22.47;18.07;;;;;;;-144.99;100.00;52566.31;5063916;28;20643;-78
2021/01/01 05:40:41;;;;;;;29.33;19.20;;;;;;;-144.99;100.00;52537.78;5043806;28;20738;-76
2021/01/01 05:43:18;;;;;;;29.83;17.57;;;;;;;-144.99;100.00;52529.63;5048808;28;20754;-77
2021/01/01 05:45:45;;;;;;;25.23;19.13;;;;;;;-144.99;100.00;52537.78;5049077;28;20642;-76
2021/01/01 05:48:12;;;;;;;25.17;20.23;;;;;;;-144.99;100.00;52525.56;5049262;28;20734;-77
2021/01/01 05:50:38;;;;;;;26.83;18.07;;;;;;;-144.99;100.00;52594.84;5058280;28;20639;-77
2021/01/01 05:53:12;;;;;;;25.67;17.43;;;;;;;-144.99;100.00;52594.84;5067906;28;20663;-78
2021/01/01 05:55:38;;;;;;;24.17;16.00;;;;;;;-144.99;100.00;52558.16;5070312;28;20697;-79
2021/01/01 05:58:18;;;;;;;31.67;19.87;;;;;;;-144.99;100.00;52554.09;5063586;28;20862;-78
2021/01/01 06:00:45;;;;;;;25.87;20.27;;;;;;;-144.99;100.00;52497.00;5048404;28;20647;-78
2021/01/01 06:03:19;;;;;;;26.40;18.23;;;;;;;-144.99;100.00;52545.94;5049810;28;20630;-78
2021/01/01 06:05:48;;;;;;;28.30;18.03;;;;;;;-144.99;100.00;52562.25;5047827;28;20659;-78
2021/01/01 06:08:22;;;;;;;32.83;18.40;;;;;;;-144.99;100.00;52533.69;5049624;28;21201;-78
2021/01/01 06:10:50;;;;;;;29.83;21.23;;;;;;;-144.99;100.00;52566.31;5049242;28;20731;-75
2021/01/01 06:13:19;;;;;;;29.70;19.97;;;;;;;-144.99;100.00;52550.00;5054839;28;20709;-76
2021/01/01 06:15:55;;;;;;;28.17;18.80;;;;;;;-144.99;100.00;52554.09;5062387;28;21253;-76
2021/01/01 06:18:25;;;;;;;25.03;17.23;;;;;;;-144.99;100.00;52529.63;5069176;28;20615;-77
2021/01/01 06:20:57;;;;;;;32.47;19.60;;;;;;;-144.99;100.00;52547.97;5050428;28;21044;-76
2021/01/01 06:23:32;;;;;;;26.13;18.87;;;;;;;-144.99;100.00;52554.09;5058709;28;20677;-76
2021/01/01 06:25:58;;;;;;;32.27;18.60;;;;;;;-144.99;100.00;52570.38;5066712;28;20706;-77
2021/01/01 06:28:26;;;;;;;24.53;18.17;;;;;;;-144.99;100.00;52578.53;5060707;28;20722;-75
2021/01/01 06:30:54;;;;;;;29.50;17.97;;;;;;;-144.99;100.00;52558.16;5051862;28;20727;-75
2021/01/01 06:33:21;;;;;;;31.27;19.17;;;;;;;-144.99;100.00;52545.94;5041187;28;20628;-75
2021/01/01 06:35:48;;;;;;;29.40;19.20;;;;;;;-144.99;100.00;52550.00;5054389;28;20623;-78
2021/01/01 06:38:35;;;;;;;23.60;17.57;;;;;;;-144.99;100.00;52552.03;5068797;28;21211;-76
2021/01/01 06:41:01;;;;;;;29.80;19.10;;;;;;;-144.99;100.00;52529.63;5049812;28;20685;-75
2021/01/01 06:43:48;;;;;;;28.10;19.77;;;;;;;-144.99;100.00;52558.16;5061815;28;20639;-75
2021/01/01 06:46:15;;;;;;;24.57;17.73;;;;;;;-144.99;100.00;52545.94;5068977;28;20631;-76
2021/01/01 06:48:41;;;;;;;24.07;16.23;;;;;;;-144.99;100.00;52543.91;5061131;28;20713;-75
2021/01/01 06:51:14;;;;;;;20.77;14.73;;;;;;;-144.99;100.00;52521.47;5048719;28;20971;-74
2021/01/01 06:53:41;;;;;;;33.07;17.47;;;;;;;-144.99;100.00;52537.78;5045585;28;20694;-74
2021/01/01 06:56:09;;;;;;;27.97;18.60;;;;;;;-144.99;100.00;52554.09;5049434;28;20647;-75
2021/01/01 06:58:35;;;;;;;26.13;18.63;;;;;;;-144.99;100.00;52572.44;5051491;28;21188;-75
2021/01/01 07:01:01;;;;;;;29.03;19.93;;;;;;;-144.99;100.00;52480.72;5052841;28;20624;-75
2021/01/01 07:03:39;;;;;;;29.97;18.27;;;;;;;-144.99;100.00;52537.78;5060589;28;20721;-75
2021/01/01 07:06:34;;;;;;;25.67;17.47;;;;;;;-144.99;100.00;52505.16;5053755;28;20712;-76
2021/01/01 07:09:05;;;;;;;28.27;19.27;;;;;;;-144.99;100.00;52537.78;5044626;28;20642;-76
2021/01/01 07:11:39;;;;;;;28.30;18.73;;;;;;;-144.99;100.00;52545.94;5072272;28;20713;-74
2021/01/01 07:14:07;;;;;;;25.37;17.50;;;;;;;-144.99;100.00;52611.16;5045140;28;20655;-75
2021/01/01 07:16:36;;;;;;;30.67;17.13;;;;;;;-144.99;100.00;52517.41;5060351;28;20658;-75
2021/01/01 07:19:04;;;;;;;30.30;21.70;;;;;;;-144.99;100.00;52545.94;5071119;28;20650;-74
2021/01/01 07:21:30;;;;;;;32.67;17.87;;;;;;;-144.99;100.00;52566.31;5052614;28;21084;-74
2021/01/01 07:23:57;;;;;;;26.87;18.77;;;;;;;-144.99;100.00;52566.31;5059489;28;20671;-75
2021/01/01 07:26:30;;;;;;;26.80;16.67;;;;;;;-144.99;100.00;52529.63;5060194;28;20626;-76
2021/01/01 07:29:01;;;;;;;29.47;18.33;;;;;;;-144.99;100.00;52558.16;5072049;28;20641;-76
2021/01/01 07:31:28;;;;;;;32.33;22.93;;;;;;;-144.99;100.00;52570.38;5052493;28;20670;-76
2021/01/01 07:33:55;;;;;;;30.67;19.47;;;;;;;-144.99;100.00;52574.47;5052132;28;20644;-74
2021/01/01 07:36:22;;;;;;;28.70;19.60;;;;;;;-144.99;100.00;52570.38;5051974;28;20682;-76
2021/01/01 07:38:50;;;;;;;32.90;22.67;;;;;;;-144.99;100.00;52545.94;5059462;28;20803;-75
2021/01/01 07:41:22;;;;;;;30.13;20.57;;;;;;;-144.99;100.00;52541.84;5055148;28;21260;-76
2021/01/01 07:43:49;;;;;;;33.30;22.50;;;;;;;-144.99;100.00;52566.31;5057297;28;21041;-75
2021/01/01 07:46:15;;;;;;;29.00;20.90;;;;;;;-144.99;100.00;52543.91;5064822;28;21000;-77
2021/01/01 07:48:42;;;;;;;30.57;23.97;;;;;;;-144.99;100.00;52513.31;5072216;28;20665;-76
2021/01/01 07:51:09;;;;;;;33.03;20.83;;;;;;;-144.99;100.00;52525.56;5066300;28;20729;-75
2021/01/01 07:53:37;;;;;;;23.83;16.73;;;;;;;-144.99;100.00;52558.16;5059770;28;20732;-76
2021/01/01 07:56:06;;;;;;;29.57;20.33;;;;;;;-144.99;100.00;52590.78;5054175;28;21054;-76
2021/01/01 07:58:34;;;;;;;29.73;21.17;;;;;;;-144.99;100.00;52537.78;5052569;28;21256;-76
2021/01/01 08:01:06;;;;;;;35.93;20.37;;;;;;;-144.99;100.00;52584.66;5065771;28;20631;-76
2021/01/01 08:03:33;;;;;;;31.60;19.23;;;;;;;-144.99;100.00;52531.66;5069571;28;20665;-76
2021/01/01 08:06:00;;;;;;;30.10;20.10;;;;;;;-144.99;100.00;52525.56;5055264;28;20659;-76
2021/01/01 08:08:26;;;;;;;29.03;20.07;;;;;;;-144.99;100.00;52605.03;5051045;28;21204;-76
2021/01/01 08:10:55;;;;;;;23.97;18.37;;;;;;;-144.99;100.00;52545.94;5065033;28;20729;-76
2021/01/01 08:13:22;;;;;;;36.63;20.83;;;;;;;-144.99;100.00;52578.53;5057220;28;20711;-77
2021/01/01 08:15:49;;;;;;;31.37;19.70;;;;;;;-144.99;100.00;52521.47;5064075;28;20631;-77
2021/01/01 08:18:18;;;;;;;31.37;22.27;;;;;;;-144.99;100.00;52533.69;5059504;28;21281;-76
2021/01/01 08:20:46;;;;;;;31.73;22.30;;;;;;;-144.99;100.00;52529.63;5058292;28;20723;-77
2021/01/01 08:23:16;;;;;;;34.03;23.17;;;;;;;-144.99;100.00;52558.16;5058191;28;20643;-78
2021/01/01 08:25:44;;;;;;;37.47;24.33;;;;;;;-144.99;100.00;52558.16;5052464;28;20620;-77
2021/01/01 08:28:12;;;;;;;35.83;23.60;;;;;;;-144.99;100.00;52531.66;5050891;28;20742;-76
2021/01/01 08:30:40;;;;;;;38.37;22.77;;;;;;;-144.99;100.00;52566.31;5053213;28;20659;-78
2021/01/01 08:33:07;;;;;;;31.07;22.30;;;;;;;-144.99;100.00;52529.63;5051299;28;20661;-76
2021/01/01 08:35:34;;;;;;;34.87;21.90;;;;;;;-144.99;100.00;52554.09;5051977;28;20652;-75
2021/01/01 08:38:00;;;;;;;31.07;21.87;;;;;;;-144.99;100.00;52574.47;5052747;28;20884;-77
2021/01/01 08:40:27;;;;;;;29.63;21.47;;;;;;;-144.99;100.00;52541.84;5060902;28;20656;-75
2021/01/01 08:42:54;;;;;;;31.40;19.67;;;;;;;-144.99;100.00;52515.34;5051102;28;20661;-76
2021/01/01 08:45:29;;;;;;;28.80;19.97;;;;;;;-144.99;100.00;52550.00;5063914;28;20708;-76
2021/01/01 08:47:55;;;;;;;40.40;21.60;;;;;;;-144.99;100.00;52586.69;5071453;28;21350;-77
2021/01/01 08:50:26;;;;;;;42.40;23.43;;;;;;;-144.99;100.00;52554.09;5058641;28;20635;-77
2021/01/01 08:53:00;;;;;;;35.57;23.23;;;;;;;-144.99;100.00;52570.38;5057684;28;20672;-78
2021/01/01 08:55:27;;;;;;;30.40;20.83;;;;;;;-144.99;100.00;52541.84;5064848;28;20690;-75
2021/01/01 08:58:06;;;;;;;41.57;26.90;;;;;;;-144.99;100.00;52554.09;5052024;28;20751;-75
2021/01/01 09:00:33;;;;;;;36.13;24.70;;;;;;;-144.99;100.00;52578.53;5049374;28;20638;-74
2021/01/01 09:03:00;;;;;;;37.90;25.17;;;;;;;-144.99;100.00;52562.25;5052770;28;20719;-76
2021/01/01 09:05:27;;;;;;;42.20;23.10;;;;;;;-144.99;100.00;52558.16;5055445;28;20660;-77
2021/01/01 09:08:08;;;;;;;32.93;23.30;;;;;;;-144.99;100.00;52545.94;5051498;28;20628;-76
2021/01/01 09:10:35;;;;;;;38.53;24.33;;;;;;;-144.99;100.00;52521.47;5050893;28;21322;-75
2021/01/01 09:13:12;;;;;;;43.60;27.90;;;;;;;-144.99;100.00;52554.09;5055038;28;20611;-77
2021/01/01 09:15:39;;;;;;;41.93;26.47;;;;;;;-144.99;100.00;52562.25;5055775;28;20763;-75
2021/01/01 09:18:07;;;;;;;44.30;27.03;;;;;;;-144.99;100.00;52521.47;5050320;28;20754;-74
2021/01/01 09:20:33;;;;;;;39.97;25.40;;;;;;;-144.99;100.00;52529.63;5050005;28;20723;-76
2021/01/01 09:23:00;;;;;;;35.57;24.70;;;;;;;-144.99;100.00;52550.00;5050282;28;20675;-76
2021/01/01 09:25:27;;;;;;;36.60;26.87;;;;;;;-144.99;100.00;52562.25;5050126;28;20659;-74
2021/01/01 09:27:55;;;;;;;40.87;26.83;;;;;;;-144.99;100.00;52541.84;5052998;28;20660;-76
2021/01/01 09:30:23;;;;;;;27.63;20.40;;;;;;;-144.99;100.00;52525.56;5052501;28;20730;-76
2021/01/01 09:32:53;;;;;;;39.30;25.07;;;;;;;-144.99;100.00;52558.16;5071729;28;20647;-76
2021/01/01 09:35:19;;;;;;;34.80;23.53;;;;;;;-144.99;100.00;52529.63;5059949;28;20713;-74
2021/01/01 09:37:46;;;;;;;35.90;26.07;;;;;;;-144.99;100.00;52517.41;5060592;28;20708;-76
2021/01/01 09:40:15;;;;;;;39.77;24.57;;;;;;;-144.99;100.00;52525.56;5054589;28;20748;-75
2021/01/01 09:42:41;;;;;;;38.23;24.57;;;;;;;-144.99;100.00;52558.16;5050505;28;20671;-76
2021/01/01 09:45:08;;;;;;;35.83;25.67;;;;;;;-144.99;100.00;52521.47;5050252;28;21397;-75
2021/01/01 09:47:34;;;;;;;35.17;24.90;;;;;;;-144.99;100.00;52474.59;5051540;28;20766;-74
2021/01/01 09:50:06;;;;;;;37.83;26.57;;;;;;;-144.99;100.00;52578.53;5058345;28;21967;-73
2021/01/01 09:52:32;;;;;;;41.87;26.83;;;;;;;-144.99;100.00;52541.84;5051112;28;20624;-74
2021/01/01 09:54:58;;;;;;;43.97;28.00;;;;;;;-144.99;100.00;52556.13;5068772;28;20717;-77
2021/01/01 09:57:24;;;;;;;33.73;22.97;;;;;;;-144.99;100.00;52545.94;5051137;28;20774;-75
2021/01/01 09:59:51;;;;;;;37.50;26.30;;;;;;;-144.99;100.00;52541.84;5050489;28;21252;-75
2021/01/01 10:02:17;;;;;;;36.13;22.30;;;;;;;-144.99;100.00;52513.31;5049957;28;21212;-76
2021/01/01 10:04:43;;;;;;;40.37;25.73;;;;;;;-144.99;100.00;52529.63;5063656;28;20675;-75
2021/01/01 10:07:10;;;;;;;27.47;21.47;;;;;;;-144.99;100.00;52533.69;5051751;28;20659;-74
2021/01/01 10:09:36;;;;;;;33.07;22.13;;;;;;;-144.99;100.00;52533.69;5051763;28;20647;-75
2021/01/01 10:12:05;;;;;;;35.97;24.47;;;;;;;-144.99;100.00;52525.56;5066665;28;20757;-76
2021/01/01 10:14:31;;;;;;;29.10;22.50;;;;;;;-144.99;100.00;52541.84;5049244;28;20644;-75
2021/01/01 10:16:57;;;;;;;35.97;22.47;;;;;;;-144.99;100.00;52529.63;5049550;28;21296;-75
2021/01/01 10:19:24;;;;;;;29.60;21.57;;;;;;;-144.99;100.00;52568.34;5048512;28;20731;-74
2021/01/01 10:21:50;;;;;;;32.03;22.37;;;;;;;-144.99;100.00;52499.06;5044012;28;20639;-75
2021/01/01 10:24:17;;;;;;;29.70;21.23;;;;;;;-144.99;100.00;52564.28;5047054;28;20721;-74
2021/01/01 10:26:50;;;;;;;34.47;20.97;;;;;;;-144.99;100.00;52533.69;5049346;28;20719;-76
2021/01/01 10:29:16;;;;;;;34.67;22.23;;;;;;;-144.99;100.00;52590.78;5065312;28;20626;-76
2021/01/01 10:31:43;;;;;;;36.50;23.33;;;;;;;-144.99;100.00;52525.56;5060447;28;21229;-74
2021/01/01 10:34:10;;;;;;;32.53;22.53;;;;;;;-144.99;100.00;52550.00;5063473;28;21074;-76
2021/01/01 10:36:37;;;;;;;30.80;21.47;;;;;;;-144.99;100.00;52484.78;5062461;28;20679;-76
2021/01/01 10:39:04;;;;;;;36.07;26.60;;;;;;;-144.99;100.00;52488.84;5069122;28;20722;-76
2021/01/01 10:41:31;;;;;;;39.10;24.67;;;;;;;-144.99;100.00;52554.09;5051493;28;21077;-76
2021/01/01 10:43:59;;;;;;;39.10;24.67;;;;;;;-144.99;100.00;52564.28;5049770;28;20995;-74
2021/01/01 10:46:25;;;;;;;33.80;23.57;;;;;;;-144.99;100.00;52533.69;5062978;28;20630;-75
2021/01/01 10:48:52;;;;;;;33.03;21.43;;;;;;;-144.99;100.00;52545.94;5062473;28;20631;-74
2021/01/01 10:51:21;;;;;;;33.03;24.20;;;;;;;-144.99;100.00;52566.31;5070855;28;20722;-76
2021/01/01 10:53:48;;;;;;;35.87;25.37;;;;;;;-144.99;100.00;52588.75;5059121;28;20769;-77
2021/01/01 10:56:20;;;;;;;44.77;33.53;;;;;;;-144.99;100.00;52545.94;5047842;28;21267;-75
2021/01/01 10:58:47;;;;;;;37.70;24.90;;;;;;;-144.99;100.00;52525.56;5048841;28;20686;-75